sensor_id;sensor_type;location;lat;lon;timestamp;temperature;humidity
41628;DHT22;27321;50.816;6.054;2023-04-24T00:01:56;11.60;62.00
41628;DHT22;27321;50.816;6.054;2023-04-24T00:04:59;11.60;62.00
41628;DHT22;27321;50.816;6.054;2023-04-24T00:08:02;11.60;62.50
41628;DHT22;27321;50.816;6.054;2023-04-24T00:11:03;11.60;63.00
41628;DHT22;27321;50.816;6.054;2023-04-24T00:14:04;11.60;63.70
41628;DHT22;27321;50.816;6.054;2023-04-24T00:17:05;11.50;63.80
41628;DHT22;27321;50.816;6.054;2023-04-24T00:20:07;11.50;64.10
41628;DHT22;27321;50.816;6.054;2023-04-24T00:23:08;11.40;64.30
41628;DHT22;27321;50.816;6.054;2023-04-24T00:26:29;11.40;64.60
41628;DHT22;27321;50.816;6.054;2023-04-24T00:29:30;11.30;65.00
41628;DHT22;27321;50.816;6.054;2023-04-24T00:32:31;11.30;65.40
41628;DHT22;27321;50.816;6.054;2023-04-24T00:35:32;11.30;65.70
41628;DHT22;27321;50.816;6.054;2023-04-24T00:38:33;11.30;65.60
41628;DHT22;27321;50.816;6.054;2023-04-24T00:41:34;11.30;66.00
41628;DHT22;27321;50.816;6.054;2023-04-24T00:44:35;11.30;65.80
41628;DHT22;27321;50.816;6.054;2023-04-24T00:47:36;11.30;65.80
41628;DHT22;27321;50.816;6.054;2023-04-24T00:50:38;11.30;66.20
41628;DHT22;27321;50.816;6.054;2023-04-24T00:53:39;11.30;66.20
41628;DHT22;27321;50.816;6.054;2023-04-24T00:56:41;11.30;66.10
41628;DHT22;27321;50.816;6.054;2023-04-24T00:59:44;11.30;65.90
41628;DHT22;27321;50.816;6.054;2023-04-24T01:02:47;11.20;66.30
41628;DHT22;27321;50.816;6.054;2023-04-24T01:05:49;11.20;66.60
41628;DHT22;27321;50.816;6.054;2023-04-24T01:08:50;11.20;66.80
41628;DHT22;27321;50.816;6.054;2023-04-24T01:11:51;11.20;66.80
41628;DHT22;27321;50.816;6.054;2023-04-24T01:14:52;11.20;66.90
41628;DHT22;27321;50.816;6.054;2023-04-24T01:17:52;11.20;67.30
41628;DHT22;27321;50.816;6.054;2023-04-24T01:20:59;11.30;67.10
41628;DHT22;27321;50.816;6.054;2023-04-24T01:24:06;11.30;67.30
41628;DHT22;27321;50.816;6.054;2023-04-24T01:27:09;11.30;67.40
41628;DHT22;27321;50.816;6.054;2023-04-24T01:30:11;11.30;67.30
41628;DHT22;27321;50.816;6.054;2023-04-24T01:33:13;11.30;67.10
41628;DHT22;27321;50.816;6.054;2023-04-24T01:36:14;11.30;67.10
41628;DHT22;27321;50.816;6.054;2023-04-24T01:39:15;11.30;67.40
41628;DHT22;27321;50.816;6.054;2023-04-24T01:42:17;11.30;66.90
41628;DHT22;27321;50.816;6.054;2023-04-24T01:45:18;11.30;66.30
41628;DHT22;27321;50.816;6.054;2023-04-24T01:48:19;11.30;66.90
41628;DHT22;27321;50.816;6.054;2023-04-24T01:51:20;11.30;67.10
41628;DHT22;27321;50.816;6.054;2023-04-24T01:54:21;11.30;67.20
41628;DHT22;27321;50.816;6.054;2023-04-24T01:57:22;11.30;66.70
41628;DHT22;27321;50.816;6.054;2023-04-24T02:00:23;11.20;67.10
41628;DHT22;27321;50.816;6.054;2023-04-24T02:03:27;11.20;67.40
41628;DHT22;27321;50.816;6.054;2023-04-24T02:06:29;11.20;67.20
41628;DHT22;27321;50.816;6.054;2023-04-24T02:09:31;11.20;67.10
41628;DHT22;27321;50.816;6.054;2023-04-24T02:12:32;11.20;66.90
41628;DHT22;27321;50.816;6.054;2023-04-24T02:15:34;11.10;67.50
41628;DHT22;27321;50.816;6.054;2023-04-24T02:18:37;11.20;67.20
41628;DHT22;27321;50.816;6.054;2023-04-24T02:21:38;11.20;67.10
41628;DHT22;27321;50.816;6.054;2023-04-24T02:24:39;11.20;67.40
41628;DHT22;27321;50.816;6.054;2023-04-24T02:27:41;11.10;67.60
41628;DHT22;27321;50.816;6.054;2023-04-24T02:30:42;11.10;67.80
41628;DHT22;27321;50.816;6.054;2023-04-24T02:33:42;11.10;67.70
41628;DHT22;27321;50.816;6.054;2023-04-24T02:36:43;11.10;67.80
41628;DHT22;27321;50.816;6.054;2023-04-24T02:39:44;11.10;67.60
41628;DHT22;27321;50.816;6.054;2023-04-24T02:42:45;11.00;67.90
41628;DHT22;27321;50.816;6.054;2023-04-24T02:45:46;11.00;67.90
41628;DHT22;27321;50.816;6.054;2023-04-24T02:48:48;11.00;68.30
41628;DHT22;27321;50.816;6.054;2023-04-24T02:51:49;11.00;68.00
41628;DHT22;27321;50.816;6.054;2023-04-24T02:54:51;11.00;68.20
41628;DHT22;27321;50.816;6.054;2023-04-24T02:57:51;11.00;68.00
41628;DHT22;27321;50.816;6.054;2023-04-24T03:00:54;10.90;68.60
41628;DHT22;27321;50.816;6.054;2023-04-24T03:03:56;10.90;68.60
41628;DHT22;27321;50.816;6.054;2023-04-24T03:06:57;10.90;68.40
41628;DHT22;27321;50.816;6.054;2023-04-24T03:09:58;10.90;68.60
41628;DHT22;27321;50.816;6.054;2023-04-24T03:13:00;10.90;68.80
41628;DHT22;27321;50.816;6.054;2023-04-24T03:16:01;11.00;68.50
41628;DHT22;27321;50.816;6.054;2023-04-24T03:19:02;11.00;68.50
41628;DHT22;27321;50.816;6.054;2023-04-24T03:22:07;11.00;68.40
41628;DHT22;27321;50.816;6.054;2023-04-24T03:25:11;11.00;68.50
41628;DHT22;27321;50.816;6.054;2023-04-24T03:28:12;11.00;68.60
41628;DHT22;27321;50.816;6.054;2023-04-24T03:31:17;11.00;68.70
41628;DHT22;27321;50.816;6.054;2023-04-24T03:34:19;11.00;68.40
41628;DHT22;27321;50.816;6.054;2023-04-24T03:37:20;11.00;68.50
41628;DHT22;27321;50.816;6.054;2023-04-24T03:40:31;11.00;68.20
41628;DHT22;27321;50.816;6.054;2023-04-24T03:43:34;10.90;68.60
41628;DHT22;27321;50.816;6.054;2023-04-24T03:46:36;10.90;69.00
41628;DHT22;27321;50.816;6.054;2023-04-24T03:49:37;10.90;68.90
41628;DHT22;27321;50.816;6.054;2023-04-24T03:52:39;10.80;69.40
41628;DHT22;27321;50.816;6.054;2023-04-24T03:55:40;10.70;69.90
41628;DHT22;27321;50.816;6.054;2023-04-24T03:58:43;10.70;70.00
41628;DHT22;27321;50.816;6.054;2023-04-24T04:01:45;10.70;70.10
41628;DHT22;27321;50.816;6.054;2023-04-24T04:04:48;10.60;70.40
41628;DHT22;27321;50.816;6.054;2023-04-24T04:07:50;10.60;70.70
41628;DHT22;27321;50.816;6.054;2023-04-24T04:10:51;10.60;71.00
41628;DHT22;27321;50.816;6.054;2023-04-24T04:13:52;10.60;70.70
41628;DHT22;27321;50.816;6.054;2023-04-24T04:16:55;10.60;71.40
41628;DHT22;27321;50.816;6.054;2023-04-24T04:19:56;10.60;71.20
41628;DHT22;27321;50.816;6.054;2023-04-24T04:22:57;10.70;71.50
41628;DHT22;27321;50.816;6.054;2023-04-24T04:26:11;10.60;72.10
41628;DHT22;27321;50.816;6.054;2023-04-24T04:29:38;10.60;72.70
41628;DHT22;27321;50.816;6.054;2023-04-24T04:32:42;10.60;72.80
41628;DHT22;27321;50.816;6.054;2023-04-24T04:35:43;10.60;73.20
41628;DHT22;27321;50.816;6.054;2023-04-24T04:38:44;10.60;73.70
41628;DHT22;27321;50.816;6.054;2023-04-24T04:42:00;10.60;73.70
41628;DHT22;27321;50.816;6.054;2023-04-24T04:45:08;10.60;74.10
41628;DHT22;27321;50.816;6.054;2023-04-24T04:48:24;10.60;74.20
41628;DHT22;27321;50.816;6.054;2023-04-24T04:51:26;10.60;74.20
41628;DHT22;27321;50.816;6.054;2023-04-24T04:54:27;10.50;74.80
41628;DHT22;27321;50.816;6.054;2023-04-24T04:57:29;10.50;74.70
41628;DHT22;27321;50.816;6.054;2023-04-24T05:00:31;10.40;75.00
41628;DHT22;27321;50.816;6.054;2023-04-24T05:03:37;10.40;74.80
41628;DHT22;27321;50.816;6.054;2023-04-24T05:06:41;10.30;74.20
41628;DHT22;27321;50.816;6.054;2023-04-24T05:09:43;10.50;74.60
41628;DHT22;27321;50.816;6.054;2023-04-24T05:12:45;10.40;73.90
41628;DHT22;27321;50.816;6.054;2023-04-24T05:15:46;10.40;74.20
41628;DHT22;27321;50.816;6.054;2023-04-24T05:19:03;10.40;74.50
41628;DHT22;27321;50.816;6.054;2023-04-24T05:22:09;10.40;74.70
41628;DHT22;27321;50.816;6.054;2023-04-24T05:25:18;10.40;74.30
41628;DHT22;27321;50.816;6.054;2023-04-24T05:28:26;10.40;74.40
41628;DHT22;27321;50.816;6.054;2023-04-24T05:31:38;10.30;74.70
41628;DHT22;27321;50.816;6.054;2023-04-24T05:34:39;10.30;75.00
41628;DHT22;27321;50.816;6.054;2023-04-24T05:37:40;10.30;74.70
41628;DHT22;27321;50.816;6.054;2023-04-24T05:40:42;10.20;75.30
41628;DHT22;27321;50.816;6.054;2023-04-24T05:43:43;10.20;75.40
41628;DHT22;27321;50.816;6.054;2023-04-24T05:46:44;10.20;75.70
41628;DHT22;27321;50.816;6.054;2023-04-24T05:49:46;10.10;75.90
41628;DHT22;27321;50.816;6.054;2023-04-24T05:52:47;10.10;75.50
41628;DHT22;27321;50.816;6.054;2023-04-24T05:56:02;10.00;75.60
41628;DHT22;27321;50.816;6.054;2023-04-24T05:59:04;10.00;75.80
41628;DHT22;27321;50.816;6.054;2023-04-24T06:02:06;10.10;76.40
41628;DHT22;27321;50.816;6.054;2023-04-24T06:05:07;10.20;76.20
41628;DHT22;27321;50.816;6.054;2023-04-24T06:08:09;10.10;76.50
41628;DHT22;27321;50.816;6.054;2023-04-24T06:11:13;10.10;76.50
41628;DHT22;27321;50.816;6.054;2023-04-24T06:14:14;10.20;76.30
41628;DHT22;27321;50.816;6.054;2023-04-24T06:17:44;10.10;76.50
41628;DHT22;27321;50.816;6.054;2023-04-24T06:20:47;10.10;77.30
41628;DHT22;27321;50.816;6.054;2023-04-24T06:23:48;10.10;77.00
41628;DHT22;27321;50.816;6.054;2023-04-24T06:26:50;10.10;77.70
41628;DHT22;27321;50.816;6.054;2023-04-24T06:29:51;10.10;77.40
41628;DHT22;27321;50.816;6.054;2023-04-24T06:32:55;10.10;77.30
41628;DHT22;27321;50.816;6.054;2023-04-24T06:35:56;10.00;77.70
41628;DHT22;27321;50.816;6.054;2023-04-24T06:38:57;10.00;78.10
41628;DHT22;27321;50.816;6.054;2023-04-24T06:41:58;10.00;78.30
41628;DHT22;27321;50.816;6.054;2023-04-24T06:44:59;9.90;78.40
41628;DHT22;27321;50.816;6.054;2023-04-24T06:48:00;9.90;78.70
41628;DHT22;27321;50.816;6.054;2023-04-24T06:51:01;9.90;79.10
41628;DHT22;27321;50.816;6.054;2023-04-24T06:54:02;9.90;79.80
41628;DHT22;27321;50.816;6.054;2023-04-24T06:57:03;9.90;78.40
41628;DHT22;27321;50.816;6.054;2023-04-24T07:00:05;9.70;77.80
41628;DHT22;27321;50.816;6.054;2023-04-24T07:03:07;9.60;78.70
41628;DHT22;27321;50.816;6.054;2023-04-24T07:06:09;9.50;79.10
41628;DHT22;27321;50.816;6.054;2023-04-24T07:09:12;9.40;79.90
41628;DHT22;27321;50.816;6.054;2023-04-24T07:12:14;9.50;80.30
41628;DHT22;27321;50.816;6.054;2023-04-24T07:15:15;9.50;80.10
41628;DHT22;27321;50.816;6.054;2023-04-24T07:18:16;9.50;80.40
41628;DHT22;27321;50.816;6.054;2023-04-24T07:21:18;9.60;80.70
41628;DHT22;27321;50.816;6.054;2023-04-24T07:24:19;9.60;79.90
41628;DHT22;27321;50.816;6.054;2023-04-24T07:27:20;9.60;79.50
41628;DHT22;27321;50.816;6.054;2023-04-24T07:30:21;9.50;79.70
41628;DHT22;27321;50.816;6.054;2023-04-24T07:33:22;9.50;80.90
41628;DHT22;27321;50.816;6.054;2023-04-24T07:36:23;9.40;81.00
41628;DHT22;27321;50.816;6.054;2023-04-24T07:39:26;9.30;80.00
41628;DHT22;27321;50.816;6.054;2023-04-24T07:42:28;9.20;79.60
41628;DHT22;27321;50.816;6.054;2023-04-24T07:45:31;9.20;80.00
41628;DHT22;27321;50.816;6.054;2023-04-24T07:48:34;9.20;80.10
41628;DHT22;27321;50.816;6.054;2023-04-24T07:51:35;9.30;80.50
41628;DHT22;27321;50.816;6.054;2023-04-24T07:54:38;9.40;80.00
41628;DHT22;27321;50.816;6.054;2023-04-24T07:57:39;9.40;80.40
41628;DHT22;27321;50.816;6.054;2023-04-24T08:00:40;9.50;80.40
41628;DHT22;27321;50.816;6.054;2023-04-24T08:03:41;9.50;79.90
41628;DHT22;27321;50.816;6.054;2023-04-24T08:06:42;9.60;80.20
41628;DHT22;27321;50.816;6.054;2023-04-24T08:09:43;9.60;80.30
41628;DHT22;27321;50.816;6.054;2023-04-24T08:12:44;9.80;80.00
41628;DHT22;27321;50.816;6.054;2023-04-24T08:15:45;9.80;80.20
41628;DHT22;27321;50.816;6.054;2023-04-24T08:18:46;9.90;80.20
41628;DHT22;27321;50.816;6.054;2023-04-24T08:21:47;9.80;80.30
41628;DHT22;27321;50.816;6.054;2023-04-24T08:24:48;9.90;80.10
41628;DHT22;27321;50.816;6.054;2023-04-24T08:27:49;9.80;79.70
41628;DHT22;27321;50.816;6.054;2023-04-24T08:30:50;9.80;80.40
41628;DHT22;27321;50.816;6.054;2023-04-24T08:33:55;9.90;80.50
41628;DHT22;27321;50.816;6.054;2023-04-24T08:36:56;9.80;79.20
41628;DHT22;27321;50.816;6.054;2023-04-24T08:39:57;9.90;80.40
41628;DHT22;27321;50.816;6.054;2023-04-24T08:42:59;9.80;80.10
41628;DHT22;27321;50.816;6.054;2023-04-24T08:46:01;9.90;80.20
41628;DHT22;27321;50.816;6.054;2023-04-24T08:49:02;9.90;80.60
41628;DHT22;27321;50.816;6.054;2023-04-24T08:52:07;9.90;79.70
41628;DHT22;27321;50.816;6.054;2023-04-24T08:55:09;9.90;80.70
41628;DHT22;27321;50.816;6.054;2023-04-24T08:58:10;9.90;79.90
41628;DHT22;27321;50.816;6.054;2023-04-24T09:01:12;9.80;80.50
41628;DHT22;27321;50.816;6.054;2023-04-24T09:04:14;9.80;80.70
41628;DHT22;27321;50.816;6.054;2023-04-24T09:07:18;9.90;81.20
41628;DHT22;27321;50.816;6.054;2023-04-24T09:10:21;9.80;80.70
41628;DHT22;27321;50.816;6.054;2023-04-24T09:13:26;9.80;81.10
41628;DHT22;27321;50.816;6.054;2023-04-24T09:16:27;9.80;81.10
41628;DHT22;27321;50.816;6.054;2023-04-24T09:19:28;9.80;81.20
41628;DHT22;27321;50.816;6.054;2023-04-24T09:22:32;9.80;81.40
41628;DHT22;27321;50.816;6.054;2023-04-24T09:25:35;9.90;80.90
41628;DHT22;27321;50.816;6.054;2023-04-24T09:28:40;9.90;80.40
41628;DHT22;27321;50.816;6.054;2023-04-24T09:31:42;9.90;80.00
41628;DHT22;27321;50.816;6.054;2023-04-24T09:34:47;10.00;80.10
41628;DHT22;27321;50.816;6.054;2023-04-24T09:37:49;10.10;80.60
41628;DHT22;27321;50.816;6.054;2023-04-24T09:40:50;10.30;79.90
41628;DHT22;27321;50.816;6.054;2023-04-24T09:43:53;10.40;79.40
41628;DHT22;27321;50.816;6.054;2023-04-24T09:46:57;10.50;80.10
41628;DHT22;27321;50.816;6.054;2023-04-24T09:49:59;10.50;78.70
41628;DHT22;27321;50.816;6.054;2023-04-24T09:53:05;10.60;79.50
41628;DHT22;27321;50.816;6.054;2023-04-24T09:56:10;10.60;78.40
41628;DHT22;27321;50.816;6.054;2023-04-24T09:59:14;10.60;78.00
41628;DHT22;27321;50.816;6.054;2023-04-24T10:02:19;10.50;78.30
41628;DHT22;27321;50.816;6.054;2023-04-24T10:05:24;10.60;79.10
41628;DHT22;27321;50.816;6.054;2023-04-24T10:08:36;10.70;79.00
41628;DHT22;27321;50.816;6.054;2023-04-24T10:11:44;11.00;78.30
41628;DHT22;27321;50.816;6.054;2023-04-24T10:14:48;11.10;76.20
41628;DHT22;27321;50.816;6.054;2023-04-24T10:17:51;11.10;75.50
41628;DHT22;27321;50.816;6.054;2023-04-24T10:20:55;11.10;75.50
41628;DHT22;27321;50.816;6.054;2023-04-24T10:23:57;11.20;75.70
41628;DHT22;27321;50.816;6.054;2023-04-24T10:27:01;11.40;74.50
41628;DHT22;27321;50.816;6.054;2023-04-24T10:30:03;11.40;71.80
41628;DHT22;27321;50.816;6.054;2023-04-24T10:33:05;11.40;74.10
41628;DHT22;27321;50.816;6.054;2023-04-24T10:36:10;11.50;72.60
41628;DHT22;27321;50.816;6.054;2023-04-24T10:39:13;11.40;72.60
41628;DHT22;27321;50.816;6.054;2023-04-24T10:42:18;11.40;71.70
41628;DHT22;27321;50.816;6.054;2023-04-24T10:45:20;11.50;73.40
41628;DHT22;27321;50.816;6.054;2023-04-24T10:48:26;11.80;73.50
41628;DHT22;27321;50.816;6.054;2023-04-24T10:54:46;11.80;71.20
41628;DHT22;27321;50.816;6.054;2023-04-24T10:58:08;11.80;71.10
41628;DHT22;27321;50.816;6.054;2023-04-24T11:01:29;12.00;69.70
41628;DHT22;27321;50.816;6.054;2023-04-24T11:04:32;11.90;70.30
41628;DHT22;27321;50.816;6.054;2023-04-24T11:08:11;11.80;71.60
41628;DHT22;27321;50.816;6.054;2023-04-24T11:11:16;11.80;71.90
41628;DHT22;27321;50.816;6.054;2023-04-24T11:14:18;11.90;73.30
41628;DHT22;27321;50.816;6.054;2023-04-24T11:17:38;12.10;72.20
41628;DHT22;27321;50.816;6.054;2023-04-24T11:20:44;12.00;67.90
41628;DHT22;27321;50.816;6.054;2023-04-24T11:23:46;12.10;68.20
41628;DHT22;27321;50.816;6.054;2023-04-24T11:26:47;12.10;69.20
41628;DHT22;27321;50.816;6.054;2023-04-24T11:29:58;12.30;69.40
41628;DHT22;27321;50.816;6.054;2023-04-24T11:33:04;12.40;66.70
41628;DHT22;27321;50.816;6.054;2023-04-24T11:36:06;12.50;68.60
41628;DHT22;27321;50.816;6.054;2023-04-24T11:39:07;12.60;66.70
41628;DHT22;27321;50.816;6.054;2023-04-24T11:42:15;12.60;66.10
41628;DHT22;27321;50.816;6.054;2023-04-24T11:45:18;12.70;66.10
41628;DHT22;27321;50.816;6.054;2023-04-24T11:48:21;12.80;65.20
41628;DHT22;27321;50.816;6.054;2023-04-24T11:51:23;12.90;64.50
41628;DHT22;27321;50.816;6.054;2023-04-24T11:54:26;13.00;65.40
41628;DHT22;27321;50.816;6.054;2023-04-24T11:57:30;13.10;65.40
41628;DHT22;27321;50.816;6.054;2023-04-24T12:00:37;13.30;66.00
41628;DHT22;27321;50.816;6.054;2023-04-24T12:03:39;13.30;64.40
41628;DHT22;27321;50.816;6.054;2023-04-24T12:07:02;13.30;62.40
41628;DHT22;27321;50.816;6.054;2023-04-24T12:10:05;13.10;62.60
41628;DHT22;27321;50.816;6.054;2023-04-24T12:13:09;13.00;62.60
41628;DHT22;27321;50.816;6.054;2023-04-24T12:16:12;12.80;61.80
41628;DHT22;27321;50.816;6.054;2023-04-24T12:19:21;12.60;64.10
41628;DHT22;27321;50.816;6.054;2023-04-24T12:22:22;12.50;67.00
41628;DHT22;27321;50.816;6.054;2023-04-24T12:25:26;12.50;68.10
41628;DHT22;27321;50.816;6.054;2023-04-24T12:28:36;12.60;69.80
41628;DHT22;27321;50.816;6.054;2023-04-24T12:31:37;12.90;70.00
41628;DHT22;27321;50.816;6.054;2023-04-24T12:34:38;13.10;69.40
41628;DHT22;27321;50.816;6.054;2023-04-24T12:37:42;13.00;67.20
41628;DHT22;27321;50.816;6.054;2023-04-24T12:40:43;13.00;66.60
41628;DHT22;27321;50.816;6.054;2023-04-24T12:43:54;12.80;65.50
41628;DHT22;27321;50.816;6.054;2023-04-24T12:46:55;12.70;63.90
41628;DHT22;27321;50.816;6.054;2023-04-24T12:49:57;12.70;62.20
41628;DHT22;27321;50.816;6.054;2023-04-24T12:52:57;12.60;62.80
41628;DHT22;27321;50.816;6.054;2023-04-24T12:55:58;12.60;63.80
41628;DHT22;27321;50.816;6.054;2023-04-24T12:59:00;12.50;62.50
41628;DHT22;27321;50.816;6.054;2023-04-24T13:02:01;12.60;63.00
41628;DHT22;27321;50.816;6.054;2023-04-24T13:05:02;12.60;62.20
41628;DHT22;27321;50.816;6.054;2023-04-24T13:08:06;12.90;62.60
41628;DHT22;27321;50.816;6.054;2023-04-24T13:11:06;13.00;62.90
41628;DHT22;27321;50.816;6.054;2023-04-24T13:14:07;13.10;62.90
41628;DHT22;27321;50.816;6.054;2023-04-24T13:17:08;13.40;62.20
41628;DHT22;27321;50.816;6.054;2023-04-24T13:20:10;13.50;60.20
41628;DHT22;27321;50.816;6.054;2023-04-24T13:23:11;13.50;59.80
41628;DHT22;27321;50.816;6.054;2023-04-24T13:26:12;13.50;58.50
41628;DHT22;27321;50.816;6.054;2023-04-24T13:29:13;13.50;57.80
41628;DHT22;27321;50.816;6.054;2023-04-24T13:32:14;13.50;59.50
41628;DHT22;27321;50.816;6.054;2023-04-24T13:35:15;13.60;59.60
41628;DHT22;27321;50.816;6.054;2023-04-24T13:38:16;13.70;57.30
41628;DHT22;27321;50.816;6.054;2023-04-24T13:41:17;13.60;58.30
41628;DHT22;27321;50.816;6.054;2023-04-24T13:44:18;13.60;58.50
41628;DHT22;27321;50.816;6.054;2023-04-24T13:47:20;13.80;59.00
41628;DHT22;27321;50.816;6.054;2023-04-24T13:50:21;13.90;59.20
41628;DHT22;27321;50.816;6.054;2023-04-24T13:53:22;14.00;58.70
41628;DHT22;27321;50.816;6.054;2023-04-24T13:56:23;14.10;57.90
41628;DHT22;27321;50.816;6.054;2023-04-24T13:59:25;14.20;57.20
41628;DHT22;27321;50.816;6.054;2023-04-24T14:02:26;14.20;56.30
41628;DHT22;27321;50.816;6.054;2023-04-24T14:05:28;14.20;56.90
41628;DHT22;27321;50.816;6.054;2023-04-24T14:08:29;14.10;55.10
41628;DHT22;27321;50.816;6.054;2023-04-24T14:11:30;14.10;57.30
41628;DHT22;27321;50.816;6.054;2023-04-24T14:14:31;14.20;58.00
41628;DHT22;27321;50.816;6.054;2023-04-24T14:17:32;14.30;56.60
41628;DHT22;27321;50.816;6.054;2023-04-24T14:20:33;14.20;57.40
41628;DHT22;27321;50.816;6.054;2023-04-24T14:23:34;14.10;53.50
41628;DHT22;27321;50.816;6.054;2023-04-24T14:26:35;13.90;54.50
41628;DHT22;27321;50.816;6.054;2023-04-24T14:29:36;14.00;54.20
41628;DHT22;27321;50.816;6.054;2023-04-24T14:32:38;14.00;51.70
41628;DHT22;27321;50.816;6.054;2023-04-24T14:35:40;13.90;51.80
41628;DHT22;27321;50.816;6.054;2023-04-24T14:38:43;13.90;52.20
41628;DHT22;27321;50.816;6.054;2023-04-24T14:41:44;13.80;53.00
41628;DHT22;27321;50.816;6.054;2023-04-24T14:44:45;13.80;53.20
41628;DHT22;27321;50.816;6.054;2023-04-24T14:47:46;13.80;54.20
41628;DHT22;27321;50.816;6.054;2023-04-24T14:50:49;14.00;54.30
41628;DHT22;27321;50.816;6.054;2023-04-24T14:53:50;14.10;54.60
41628;DHT22;27321;50.816;6.054;2023-04-24T14:56:52;14.20;53.80
41628;DHT22;27321;50.816;6.054;2023-04-24T14:59:53;14.10;52.40
41628;DHT22;27321;50.816;6.054;2023-04-24T15:02:54;14.10;53.90
41628;DHT22;27321;50.816;6.054;2023-04-24T15:05:58;14.20;52.20
41628;DHT22;27321;50.816;6.054;2023-04-24T15:08:59;14.20;52.30
41628;DHT22;27321;50.816;6.054;2023-04-24T15:12:00;14.10;51.30
41628;DHT22;27321;50.816;6.054;2023-04-24T15:15:02;14.00;52.00
41628;DHT22;27321;50.816;6.054;2023-04-24T15:18:05;14.00;53.50
41628;DHT22;27321;50.816;6.054;2023-04-24T15:21:06;13.90;53.40
41628;DHT22;27321;50.816;6.054;2023-04-24T15:24:06;13.90;53.50
41628;DHT22;27321;50.816;6.054;2023-04-24T15:27:10;13.70;53.30
41628;DHT22;27321;50.816;6.054;2023-04-24T15:30:12;13.70;54.00
41628;DHT22;27321;50.816;6.054;2023-04-24T15:33:13;13.60;54.30
41628;DHT22;27321;50.816;6.054;2023-04-24T15:36:15;13.70;54.90
41628;DHT22;27321;50.816;6.054;2023-04-24T15:39:17;13.60;54.20
41628;DHT22;27321;50.816;6.054;2023-04-24T15:42:20;13.60;55.00
41628;DHT22;27321;50.816;6.054;2023-04-24T15:45:22;13.60;54.60
41628;DHT22;27321;50.816;6.054;2023-04-24T15:48:23;13.60;54.50
41628;DHT22;27321;50.816;6.054;2023-04-24T15:51:26;13.70;55.00
41628;DHT22;27321;50.816;6.054;2023-04-24T15:54:28;13.90;55.30
41628;DHT22;27321;50.816;6.054;2023-04-24T15:57:29;14.00;54.70
41628;DHT22;27321;50.816;6.054;2023-04-24T16:00:30;13.90;54.40
41628;DHT22;27321;50.816;6.054;2023-04-24T16:03:33;13.80;53.50
41628;DHT22;27321;50.816;6.054;2023-04-24T16:06:34;13.70;53.70
41628;DHT22;27321;50.816;6.054;2023-04-24T16:09:35;13.70;54.90
41628;DHT22;27321;50.816;6.054;2023-04-24T16:12:36;13.80;55.50
41628;DHT22;27321;50.816;6.054;2023-04-24T16:15:38;13.80;56.40
41628;DHT22;27321;50.816;6.054;2023-04-24T16:18:39;13.70;55.00
41628;DHT22;27321;50.816;6.054;2023-04-24T16:21:40;13.80;55.20
41628;DHT22;27321;50.816;6.054;2023-04-24T16:24:41;13.70;55.30
41628;DHT22;27321;50.816;6.054;2023-04-24T16:27:43;13.80;56.00
41628;DHT22;27321;50.816;6.054;2023-04-24T16:30:44;13.80;55.00
41628;DHT22;27321;50.816;6.054;2023-04-24T16:33:44;13.70;54.70
41628;DHT22;27321;50.816;6.054;2023-04-24T16:36:46;13.60;54.20
41628;DHT22;27321;50.816;6.054;2023-04-24T16:39:47;13.50;54.30
41628;DHT22;27321;50.816;6.054;2023-04-24T16:42:48;13.50;54.90
41628;DHT22;27321;50.816;6.054;2023-04-24T16:45:50;13.50;55.00
41628;DHT22;27321;50.816;6.054;2023-04-24T16:48:51;13.50;55.10
41628;DHT22;27321;50.816;6.054;2023-04-24T16:51:55;13.50;54.60
41628;DHT22;27321;50.816;6.054;2023-04-24T16:54:57;13.50;54.70
41628;DHT22;27321;50.816;6.054;2023-04-24T16:57:58;13.40;53.90
41628;DHT22;27321;50.816;6.054;2023-04-24T17:00:59;13.30;55.20
41628;DHT22;27321;50.816;6.054;2023-04-24T17:04:00;13.30;55.50
41628;DHT22;27321;50.816;6.054;2023-04-24T17:07:01;13.40;55.70
41628;DHT22;27321;50.816;6.054;2023-04-24T17:10:02;13.50;56.00
41628;DHT22;27321;50.816;6.054;2023-04-24T17:13:03;13.50;56.30
41628;DHT22;27321;50.816;6.054;2023-04-24T17:16:05;13.50;56.30
41628;DHT22;27321;50.816;6.054;2023-04-24T17:19:06;13.60;56.40
41628;DHT22;27321;50.816;6.054;2023-04-24T17:22:07;13.60;56.40
41628;DHT22;27321;50.816;6.054;2023-04-24T17:25:08;13.60;56.50
41628;DHT22;27321;50.816;6.054;2023-04-24T17:28:27;13.50;55.90
41628;DHT22;27321;50.816;6.054;2023-04-24T17:31:29;13.50;56.10
41628;DHT22;27321;50.816;6.054;2023-04-24T17:34:30;13.50;55.30
41628;DHT22;27321;50.816;6.054;2023-04-24T17:37:32;13.50;55.60
41628;DHT22;27321;50.816;6.054;2023-04-24T17:40:33;13.50;55.20
41628;DHT22;27321;50.816;6.054;2023-04-24T17:43:34;13.60;55.70
41628;DHT22;27321;50.816;6.054;2023-04-24T17:46:35;13.50;54.70
41628;DHT22;27321;50.816;6.054;2023-04-24T17:49:36;13.50;54.80
41628;DHT22;27321;50.816;6.054;2023-04-24T17:52:39;13.60;55.30
41628;DHT22;27321;50.816;6.054;2023-04-24T17:55:40;13.60;53.90
41628;DHT22;27321;50.816;6.054;2023-04-24T17:58:43;13.40;53.70
41628;DHT22;27321;50.816;6.054;2023-04-24T18:01:44;13.30;53.60
41628;DHT22;27321;50.816;6.054;2023-04-24T18:04:45;13.30;53.30
41628;DHT22;27321;50.816;6.054;2023-04-24T18:07:48;13.20;53.70
41628;DHT22;27321;50.816;6.054;2023-04-24T18:10:49;13.10;53.80
41628;DHT22;27321;50.816;6.054;2023-04-24T18:13:50;13.00;53.90
41628;DHT22;27321;50.816;6.054;2023-04-24T18:16:51;12.90;55.00
41628;DHT22;27321;50.816;6.054;2023-04-24T18:19:52;12.80;55.70
41628;DHT22;27321;50.816;6.054;2023-04-24T18:22:53;12.70;56.70
41628;DHT22;27321;50.816;6.054;2023-04-24T18:25:54;12.60;57.40
41628;DHT22;27321;50.816;6.054;2023-04-24T18:28:55;12.60;57.80
41628;DHT22;27321;50.816;6.054;2023-04-24T18:31:56;12.60;58.20
41628;DHT22;27321;50.816;6.054;2023-04-24T18:34:57;12.60;58.80
41628;DHT22;27321;50.816;6.054;2023-04-24T18:37:58;12.60;59.10
41628;DHT22;27321;50.816;6.054;2023-04-24T18:40:59;12.50;58.90
41628;DHT22;27321;50.816;6.054;2023-04-24T18:44:00;12.40;59.60
41628;DHT22;27321;50.816;6.054;2023-04-24T18:47:01;12.30;59.60
41628;DHT22;27321;50.816;6.054;2023-04-24T18:50:03;12.20;60.20
41628;DHT22;27321;50.816;6.054;2023-04-24T18:53:06;12.20;59.80
41628;DHT22;27321;50.816;6.054;2023-04-24T18:56:09;12.30;60.10
41628;DHT22;27321;50.816;6.054;2023-04-24T18:59:10;12.30;60.30
41628;DHT22;27321;50.816;6.054;2023-04-24T19:02:11;12.40;59.90
41628;DHT22;27321;50.816;6.054;2023-04-24T19:05:12;12.30;60.00
41628;DHT22;27321;50.816;6.054;2023-04-24T19:08:13;12.30;60.00
41628;DHT22;27321;50.816;6.054;2023-04-24T19:11:14;12.30;60.00
41628;DHT22;27321;50.816;6.054;2023-04-24T19:14:15;12.20;60.40
41628;DHT22;27321;50.816;6.054;2023-04-24T19:17:17;12.20;60.20
41628;DHT22;27321;50.816;6.054;2023-04-24T19:20:24;12.20;60.40